Time;durP1;ratioP1;P1;durP2;ratioP2;P2;SDS_P1;SDS_P2;PMS_P1;PMS_P2;Temp;Humidity;BMP_temperature;BMP_pressure;BME280_temperature;BME280_humidity;BME280_pressure;Samples;Min_cycle;Max_cycle;Signal;HPM_P1;HPM_P2
2022/03/05 00:02:07;;;;;;;20.57;17.87;;;0.00;99.90;;;;;;4960429;28;20072;-77
2022/03/05 00:04:36;;;;;;;19.57;17.20;;;0.00;99.90;;;;;;5009257;28;20056;-77
2022/03/05 00:07:02;;;;;;;22.30;18.50;;;-0.10;99.90;;;;;;5000067;28;20133;-77
2022/03/05 00:09:28;;;;;;;22.80;17.93;;;-0.10;99.90;;;;;;4978905;28;20137;-77
2022/03/05 00:11:53;;;;;;;19.23;16.90;;;-0.10;99.90;;;;;;4984817;28;20046;-77
2022/03/05 00:14:19;;;;;;;19.50;17.33;;;-0.10;99.90;;;;;;5018150;28;20058;-76
2022/03/05 00:16:45;;;;;;;21.73;18.07;;;-0.20;99.90;;;;;;5000204;28;20054;-77
2022/03/05 00:19:11;;;;;;;19.87;17.70;;;-0.10;99.90;;;;;;4987476;28;20485;-77
2022/03/05 00:21:36;;;;;;;20.93;18.63;;;-0.20;99.90;;;;;;4979719;28;20042;-76
2022/03/05 00:24:02;;;;;;;22.93;18.80;;;-0.20;99.90;;;;;;4988713;28;20125;-76
2022/03/05 00:26:28;;;;;;;23.10;18.60;;;-0.20;99.90;;;;;;4990323;28;20093;-75
2022/03/05 00:28:57;;;;;;;22.80;18.20;;;-0.20;99.90;;;;;;5000700;28;20045;-76
2022/03/05 00:31:23;;;;;;;22.30;19.37;;;-0.20;99.90;;;;;;4995406;28;20057;-76
2022/03/05 00:33:49;;;;;;;20.47;17.57;;;-0.20;99.90;;;;;;5000953;28;20722;-76
2022/03/05 00:36:15;;;;;;;24.53;19.67;;;-0.30;99.90;;;;;;4999876;28;20104;-76
2022/03/05 00:38:40;;;;;;;23.27;19.47;;;-0.30;99.90;;;;;;5001521;28;20074;-76
2022/03/05 00:41:06;;;;;;;23.27;18.60;;;-0.40;99.90;;;;;;4977669;28;20543;-76
2022/03/05 00:43:32;;;;;;;22.30;19.00;;;-0.40;99.90;;;;;;4990758;28;20065;-76
2022/03/05 00:45:58;;;;;;;22.80;18.50;;;-0.40;99.90;;;;;;4978977;28;20493;-78
2022/03/05 00:48:23;;;;;;;22.27;19.00;;;-0.40;99.90;;;;;;4978531;28;20050;-76
2022/03/05 00:50:49;;;;;;;23.27;18.63;;;-0.40;99.90;;;;;;4963733;28;20133;-76
2022/03/05 00:53:17;;;;;;;25.93;20.13;;;-0.50;99.90;;;;;;4990547;28;20034;-76
2022/03/05 00:55:44;;;;;;;23.20;19.50;;;-0.50;99.90;;;;;;5005525;28;20060;-76
2022/03/05 00:58:10;;;;;;;26.00;20.77;;;-0.50;99.90;;;;;;4994202;28;20042;-76
2022/03/05 01:00:35;;;;;;;23.33;19.30;;;-0.50;99.90;;;;;;4973354;28;20398;-76
2022/03/05 01:03:02;;;;;;;24.50;20.73;;;-0.50;99.90;;;;;;5001701;28;20042;-76
2022/03/05 01:05:28;;;;;;;22.00;19.40;;;-0.50;99.90;;;;;;5001036;28;20097;-76
2022/03/05 01:07:53;;;;;;;25.40;21.17;;;-0.60;99.90;;;;;;4993794;28;20042;-76
2022/03/05 01:10:19;;;;;;;23.10;19.93;;;-0.60;99.90;;;;;;4973071;28;20056;-76
2022/03/05 01:12:45;;;;;;;22.47;19.93;;;-0.60;99.90;;;;;;4999732;28;20133;-76
2022/03/05 01:15:11;;;;;;;23.10;19.67;;;-0.70;99.90;;;;;;5001451;28;20042;-76
2022/03/05 01:17:37;;;;;;;23.83;20.53;;;-0.70;99.90;;;;;;4975601;28;20448;-76
2022/03/05 01:20:04;;;;;;;23.93;20.20;;;-0.70;99.90;;;;;;4975099;28;20046;-76
2022/03/05 01:22:29;;;;;;;23.10;19.13;;;-0.70;99.90;;;;;;4996945;28;20042;-76
2022/03/05 01:24:58;;;;;;;22.23;18.87;;;-0.80;99.90;;;;;;4984596;28;20034;-76
2022/03/05 01:27:24;;;;;;;22.40;19.40;;;-0.80;99.90;;;;;;4990556;28;20038;-76
2022/03/05 01:29:50;;;;;;;23.00;19.27;;;-0.80;99.90;;;;;;4967665;28;20104;-76
2022/03/05 01:32:16;;;;;;;23.10;19.53;;;-0.80;99.90;;;;;;4975933;28;20104;-75
2022/03/05 01:34:42;;;;;;;23.27;19.50;;;-0.80;99.90;;;;;;4990190;28;20432;-75
2022/03/05 01:37:07;;;;;;;24.00;18.97;;;-0.80;99.90;;;;;;5003141;28;20041;-76
2022/03/05 01:39:33;;;;;;;20.50;18.30;;;-0.80;99.90;;;;;;5002929;28;20103;-76
2022/03/05 01:42:01;;;;;;;24.10;19.37;;;-0.70;99.90;;;;;;4989783;28;20527;-75
2022/03/05 01:44:27;;;;;;;21.07;18.77;;;-0.70;99.90;;;;;;4943649;28;20509;-76
2022/03/05 01:46:53;;;;;;;22.37;18.07;;;-0.70;99.90;;;;;;4988081;28;20627;-76
2022/03/05 01:49:19;;;;;;;23.17;18.60;;;-0.70;99.90;;;;;;4989011;28;20148;-76
2022/03/05 01:51:46;;;;;;;21.87;18.33;;;-0.70;99.90;;;;;;4995781;28;20045;-76
2022/03/05 01:54:13;;;;;;;21.30;17.80;;;-0.70;99.90;;;;;;4976346;28;20039;-76
2022/03/05 01:56:40;;;;;;;19.83;17.03;;;-0.70;99.90;;;;;;4988507;28;20046;-76
2022/03/05 01:59:06;;;;;;;19.27;16.87;;;-0.70;99.90;;;;;;4994199;28;20037;-76
2022/03/05 02:01:32;;;;;;;20.67;17.00;;;-0.70;99.90;;;;;;4954699;28;20129;-75
2022/03/05 02:03:59;;;;;;;18.87;16.83;;;-0.70;99.90;;;;;;4998644;28;20124;-75
2022/03/05 02:06:28;;;;;;;20.37;17.23;;;-0.80;99.90;;;;;;4989606;28;20380;-75
2022/03/05 02:08:58;;;;;;;18.93;16.73;;;-0.70;99.90;;;;;;4989035;28;20045;-75
2022/03/05 02:11:25;;;;;;;20.87;16.30;;;-0.70;99.90;;;;;;4977221;28;20042;-75
2022/03/05 02:13:54;;;;;;;21.83;16.63;;;-0.70;99.90;;;;;;4980829;28;20050;-75
2022/03/05 02:16:21;;;;;;;20.23;16.73;;;-0.70;99.90;;;;;;5001374;28;20578;-75
2022/03/05 02:18:50;;;;;;;19.47;15.87;;;-0.70;99.90;;;;;;4976432;28;20656;-77
2022/03/05 02:21:17;;;;;;;19.52;16.60;;;-0.70;99.90;;;;;;4971999;28;20069;-75
2022/03/05 02:23:44;;;;;;;18.47;15.93;;;-0.70;99.90;;;;;;4981482;28;20045;-76
2022/03/05 02:26:10;;;;;;;18.97;15.37;;;-0.70;99.90;;;;;;4980164;28;20492;-75
2022/03/05 02:28:37;;;;;;;17.00;14.67;;;-0.70;99.90;;;;;;4975122;28;20100;-74
2022/03/05 02:31:04;;;;;;;16.13;13.50;;;-0.60;99.90;;;;;;4985617;28;20088;-75
2022/03/05 02:33:30;;;;;;;18.40;14.40;;;-0.70;99.90;;;;;;4970206;28;20085;-75
2022/03/05 02:35:59;;;;;;;17.77;13.93;;;-0.60;99.90;;;;;;4988598;28;20039;-75
2022/03/05 02:38:28;;;;;;;16.10;13.80;;;-0.60;99.90;;;;;;4988604;28;20038;-74
2022/03/05 02:40:54;;;;;;;17.23;13.63;;;-0.60;99.90;;;;;;4983309;28;20111;-74
2022/03/05 02:43:23;;;;;;;16.33;13.23;;;-0.60;99.90;;;;;;5022406;28;20052;-75
2022/03/05 02:45:50;;;;;;;16.67;13.83;;;-0.50;99.90;;;;;;4989609;28;20092;-74
2022/03/05 02:48:17;;;;;;;20.57;14.27;;;-0.50;99.90;;;;;;4994927;28;20450;-74
2022/03/05 02:50:44;;;;;;;16.37;14.07;;;-0.50;99.90;;;;;;4970193;28;20404;-74
2022/03/05 02:53:11;;;;;;;16.57;13.43;;;-0.50;99.90;;;;;;4993820;28;20077;-75
2022/03/05 02:55:38;;;;;;;16.00;13.83;;;-0.40;99.90;;;;;;4993386;28;20104;-75
2022/03/05 02:58:03;;;;;;;15.67;13.47;;;-0.40;99.90;;;;;;4997633;28;20569;-74
2022/03/05 03:00:30;;;;;;;16.80;13.00;;;-0.30;99.90;;;;;;4978320;28;20050;-74
2022/03/05 03:02:59;;;;;;;15.87;13.03;;;-0.30;99.90;;;;;;4987613;28;20043;-74
2022/03/05 03:05:31;;;;;;;16.53;13.17;;;-0.20;99.90;;;;;;4987634;28;20065;-73
2022/03/05 03:07:57;;;;;;;18.37;13.57;;;-0.20;99.90;;;;;;4992986;28;20045;-74
2022/03/05 03:10:22;;;;;;;16.80;13.47;;;-0.20;99.90;;;;;;4970197;28;20046;-75
2022/03/05 03:12:48;;;;;;;16.87;13.40;;;-0.20;99.90;;;;;;4955014;28;20109;-75
2022/03/05 03:15:15;;;;;;;15.90;12.80;;;-0.20;99.90;;;;;;4971421;28;20130;-74
2022/03/05 03:17:45;;;;;;;18.10;12.97;;;-0.20;99.90;;;;;;4970638;28;20141;-74
2022/03/05 03:20:16;;;;;;;18.07;13.77;;;-0.20;99.90;;;;;;4957842;28;20101;-76
2022/03/05 03:22:42;;;;;;;16.23;13.02;;;-0.20;99.90;;;;;;4974503;28;20689;-75
2022/03/05 03:25:10;;;;;;;17.13;13.40;;;-0.20;99.90;;;;;;4990620;28;20559;-75
2022/03/05 03:27:36;;;;;;;16.27;12.70;;;-0.20;99.90;;;;;;4959008;28;20054;-75
2022/03/05 03:30:04;;;;;;;15.00;12.63;;;-0.20;99.90;;;;;;4968230;28;20042;-76
2022/03/05 03:32:33;;;;;;;18.00;13.70;;;-0.30;99.90;;;;;;4994200;28;20089;-75
2022/03/05 03:34:59;;;;;;;17.73;14.20;;;-0.30;99.90;;;;;;5004032;28;20046;-76
2022/03/05 03:37:28;;;;;;;17.27;13.37;;;-0.40;99.90;;;;;;4979021;28;20043;-75
2022/03/05 03:39:58;;;;;;;17.05;12.40;;;-0.40;99.90;;;;;;4979878;28;20043;-76
2022/03/05 03:42:28;;;;;;;16.67;13.05;;;-0.40;99.90;;;;;;4982267;28;20452;-76
2022/03/05 03:44:54;;;;;;;18.80;13.60;;;-0.40;99.90;;;;;;5000000;28;20568;-76
2022/03/05 03:47:27;;;;;;;16.67;13.30;;;-0.50;99.90;;;;;;4999168;28;20065;-76
2022/03/05 03:49:53;;;;;;;18.60;14.30;;;-0.50;99.90;;;;;;4980077;28;20045;-75
2022/03/05 03:52:19;;;;;;;18.23;13.90;;;-0.50;99.90;;;;;;4993637;28;20596;-75
2022/03/05 03:54:47;;;;;;;16.90;13.10;;;-0.60;99.90;;;;;;4975010;28;20050;-75
2022/03/05 03:57:13;;;;;;;15.93;13.07;;;-0.60;99.90;;;;;;4979705;28;20046;-76
2022/03/05 03:59:39;;;;;;;19.37;14.13;;;-0.70;99.90;;;;;;4989129;28;20049;-75
2022/03/05 04:02:05;;;;;;;18.77;13.73;;;-0.70;99.90;;;;;;5004926;28;20508;-75
2022/03/05 04:04:31;;;;;;;17.33;13.43;;;-0.80;99.90;;;;;;4995296;28;20060;-75
2022/03/05 04:09:42;;;;;;;19.23;13.43;;;-0.80;99.90;;;;;;4987867;28;20057;-75
2022/03/05 04:12:08;;;;;;;19.27;14.07;;;-0.80;99.90;;;;;;4972014;28;20046;-75
2022/03/05 04:14:35;;;;;;;18.20;13.80;;;-0.90;99.90;;;;;;4973324;28;20050;-75
2022/03/05 04:17:01;;;;;;;19.70;14.07;;;-0.80;99.90;;;;;;4972237;28;20050;-75
2022/03/05 04:19:27;;;;;;;18.90;14.43;;;-0.80;99.90;;;;;;4976280;28;20050;-75
2022/03/05 04:21:52;;;;;;;18.53;13.70;;;-0.80;99.90;;;;;;4972512;28;20038;-75
2022/03/05 04:24:18;;;;;;;19.53;14.17;;;-0.80;99.90;;;;;;5001398;28;20092;-74
2022/03/05 04:26:44;;;;;;;17.93;14.50;;;-0.70;99.90;;;;;;4996052;28;20038;-74
2022/03/05 04:29:10;;;;;;;17.60;13.80;;;-0.80;99.90;;;;;;4997935;28;20065;-74
2022/03/05 04:31:36;;;;;;;19.97;14.60;;;-0.80;99.90;;;;;;4979864;28;20073;-75
2022/03/05 04:34:01;;;;;;;17.87;13.37;;;-0.80;99.90;;;;;;5002439;28;20053;-75
2022/03/05 04:36:27;;;;;;;19.87;14.67;;;-0.80;99.90;;;;;;5000686;28;20100;-77
2022/03/05 04:38:53;;;;;;;21.40;16.13;;;-0.80;99.90;;;;;;5004153;28;20489;-77
2022/03/05 04:41:19;;;;;;;19.43;15.10;;;-0.80;99.90;;;;;;4971988;28;20058;-77
2022/03/05 04:43:46;;;;;;;18.50;14.13;;;-0.80;99.90;;;;;;4989213;28;20050;-78
2022/03/05 04:46:12;;;;;;;18.90;14.43;;;-0.80;99.90;;;;;;4979762;28;20042;-77
2022/03/05 04:48:38;;;;;;;19.00;14.37;;;-0.70;99.90;;;;;;4992732;28;20049;-77
2022/03/05 04:51:03;;;;;;;21.50;15.13;;;-0.80;99.90;;;;;;4974053;28;20046;-77
2022/03/05 04:53:29;;;;;;;19.73;15.17;;;-0.70;99.90;;;;;;4995278;28;20042;-77
2022/03/05 04:55:58;;;;;;;23.10;16.30;;;-0.80;99.90;;;;;;4998594;28;20050;-77
2022/03/05 04:58:24;;;;;;;20.30;13.93;;;-0.80;99.90;;;;;;4990444;28;20456;-77
2022/03/05 05:00:50;;;;;;;21.90;15.07;;;-0.80;99.90;;;;;;4995573;28;20522;-77
2022/03/05 05:03:15;;;;;;;20.27;14.50;;;-0.80;99.90;;;;;;5008292;28;20104;-77
2022/03/05 05:05:41;;;;;;;20.10;14.73;;;-0.60;99.90;;;;;;4994253;28;20073;-77
2022/03/05 05:08:07;;;;;;;19.77;14.63;;;-0.60;99.90;;;;;;4971855;28;20039;-77
2022/03/05 05:10:33;;;;;;;19.87;14.63;;;-0.60;99.90;;;;;;4987731;28;20046;-77
2022/03/05 05:12:59;;;;;;;20.17;14.57;;;-0.60;99.90;;;;;;4957021;28;20060;-77
2022/03/05 05:15:28;;;;;;;20.33;15.70;;;-0.60;99.90;;;;;;4973001;28;20042;-77
2022/03/05 05:17:54;;;;;;;19.40;14.20;;;-0.60;99.90;;;;;;4956813;28;20490;-77
2022/03/05 05:20:19;;;;;;;21.80;15.27;;;-0.60;99.90;;;;;;4990871;28;20058;-77
2022/03/05 05:22:45;;;;;;;19.53;14.90;;;-0.60;99.90;;;;;;4992188;28;20565;-76
2022/03/05 05:25:11;;;;;;;19.70;15.17;;;-0.60;99.90;;;;;;4960494;28;20044;-77
2022/03/05 05:27:38;;;;;;;20.57;15.80;;;-0.70;99.90;;;;;;4992691;28;20511;-77
2022/03/05 05:30:06;;;;;;;19.80;15.40;;;-0.70;99.90;;;;;;4992146;28;20459;-77
2022/03/05 05:32:32;;;;;;;20.47;15.30;;;-0.70;99.90;;;;;;4992736;28;20088;-74
2022/03/05 05:34:58;;;;;;;19.00;14.47;;;-0.70;99.90;;;;;;4992466;28;20038;-76
2022/03/05 05:37:24;;;;;;;19.00;14.40;;;-0.70;99.90;;;;;;4992575;28;20053;-76
2022/03/05 05:39:50;;;;;;;17.67;13.23;;;-0.70;99.90;;;;;;5005245;28;20041;-74
2022/03/05 05:42:16;;;;;;;18.40;13.53;;;-0.70;99.90;;;;;;4988630;28;20049;-76
2022/03/05 05:44:42;;;;;;;18.83;14.17;;;-0.70;99.90;;;;;;4971198;28;20396;-74
2022/03/05 05:47:08;;;;;;;18.37;13.53;;;-0.70;99.90;;;;;;4989011;28;20043;-75
2022/03/05 05:49:35;;;;;;;18.97;14.10;;;-0.70;99.90;;;;;;4988145;28;20050;-76
2022/03/05 05:52:02;;;;;;;17.60;13.43;;;-0.70;99.90;;;;;;4988751;28;20050;-75
2022/03/05 05:54:28;;;;;;;16.47;12.93;;;-0.70;99.90;;;;;;4972709;28;20085;-76
2022/03/05 05:56:54;;;;;;;20.20;14.50;;;-0.80;99.90;;;;;;4988505;28;20148;-76
2022/03/05 05:59:20;;;;;;;17.37;13.03;;;-0.80;99.90;;;;;;4987851;28;20081;-76
2022/03/05 06:01:46;;;;;;;17.23;13.67;;;-0.80;99.90;;;;;;4988588;28;20054;-76
2022/03/05 06:04:12;;;;;;;19.23;13.17;;;-0.80;99.90;;;;;;4989001;28;20677;-76
2022/03/05 06:06:37;;;;;;;17.40;13.37;;;-0.80;99.90;;;;;;4991133;28;20049;-76
2022/03/05 06:09:04;;;;;;;18.53;13.87;;;-0.90;99.90;;;;;;4996028;28;20046;-76
2022/03/05 06:11:32;;;;;;;17.03;13.67;;;-0.90;99.90;;;;;;4990601;28;20427;-76
2022/03/05 06:13:58;;;;;;;16.20;13.43;;;-0.90;99.90;;;;;;4988126;28;20045;-76
2022/03/05 06:16:24;;;;;;;17.93;13.23;;;-0.80;99.90;;;;;;4989657;28;20573;-76
2022/03/05 06:18:50;;;;;;;18.77;13.60;;;-0.90;99.90;;;;;;4973545;28;20054;-76
2022/03/05 06:21:16;;;;;;;16.40;12.73;;;-0.90;99.90;;;;;;4963299;28;20218;-76
2022/03/05 06:23:42;;;;;;;17.00;12.83;;;-1.00;99.90;;;;;;4979428;28;20054;-76
2022/03/05 06:26:08;;;;;;;17.23;12.40;;;-1.00;99.90;;;;;;4968867;28;20120;-77
2022/03/05 06:28:34;;;;;;;15.97;12.70;;;-1.00;99.90;;;;;;4985491;28;20452;-76
2022/03/05 06:31:00;;;;;;;17.23;13.80;;;-1.00;99.90;;;;;;4975591;28;20038;-76
2022/03/05 06:33:27;;;;;;;16.70;12.60;;;-1.00;99.90;;;;;;4954641;28;20042;-76
2022/03/05 06:35:53;;;;;;;16.53;12.00;;;-1.00;99.90;;;;;;4987476;28;20054;-76
2022/03/05 06:38:19;;;;;;;18.60;13.60;;;-1.00;99.90;;;;;;4969999;28;20425;-76
2022/03/05 06:40:44;;;;;;;17.40;13.10;;;-1.00;99.90;;;;;;4987643;28;20045;-77
2022/03/05 06:43:11;;;;;;;16.80;13.73;;;-0.80;99.90;;;;;;4960709;28;20064;-77
2022/03/05 06:45:37;;;;;;;17.00;13.43;;;-0.90;99.90;;;;;;5012450;28;20041;-77
2022/03/05 06:48:04;;;;;;;18.13;13.17;;;-0.90;99.90;;;;;;4970157;28;20729;-77
2022/03/05 06:50:30;;;;;;;16.93;14.10;;;-0.80;99.90;;;;;;4987991;28;20038;-77
2022/03/05 06:52:59;;;;;;;19.27;13.63;;;-0.80;99.90;;;;;;4984878;28;20564;-77
2022/03/05 06:55:25;;;;;;;17.33;13.00;;;-0.70;99.90;;;;;;4987111;28;20471;-77
2022/03/05 06:57:52;;;;;;;16.30;12.70;;;-0.70;99.90;;;;;;4993041;28;20133;-77
2022/03/05 07:00:18;;;;;;;18.20;13.93;;;-0.70;99.90;;;;;;4991755;28;20138;-77
2022/03/05 07:02:44;;;;;;;18.63;13.20;;;-0.70;99.90;;;;;;4981555;28;20042;-77
2022/03/05 07:05:10;;;;;;;15.90;12.87;;;-0.60;99.90;;;;;;4990646;28;20572;-77
2022/03/05 07:07:37;;;;;;;16.00;12.80;;;-0.60;99.90;;;;;;4990092;28;20041;-77
2022/03/05 07:10:04;;;;;;;19.27;14.00;;;-0.50;99.90;;;;;;4965037;28;20408;-77
2022/03/05 07:12:33;;;;;;;16.13;13.20;;;-0.50;99.90;;;;;;5016719;28;20046;-77
2022/03/05 07:14:59;;;;;;;17.20;13.23;;;-0.40;99.90;;;;;;5002243;28;20448;-76
2022/03/05 07:17:25;;;;;;;17.63;13.23;;;-0.40;99.90;;;;;;4993552;28;20056;-77
2022/03/05 07:19:53;;;;;;;18.07;14.40;;;-0.30;99.90;;;;;;5009231;28;20092;-74
2022/03/05 07:22:19;;;;;;;18.63;13.77;;;-0.20;99.90;;;;;;5009236;28;20394;-76
2022/03/05 07:24:45;;;;;;;19.77;14.77;;;-0.10;99.90;;;;;;5006005;28;20057;-76
2022/03/05 07:27:10;;;;;;;19.57;13.67;;;0.00;99.90;;;;;;4966117;28;20033;-76
2022/03/05 07:29:36;;;;;;;17.10;13.03;;;0.00;99.90;;;;;;4994912;28;20046;-74
2022/03/05 07:32:04;;;;;;;19.40;14.67;;;0.10;99.90;;;;;;4994735;28;20069;-75
2022/03/05 07:34:30;;;;;;;16.90;13.50;;;0.20;99.90;;;;;;5003361;28;20125;-78
2022/03/05 07:36:57;;;;;;;18.77;14.70;;;0.30;99.90;;;;;;4995945;28;20073;-77
2022/03/05 07:39:23;;;;;;;19.33;14.23;;;0.40;99.90;;;;;;4975266;28;20125;-77
2022/03/05 07:41:49;;;;;;;18.67;14.73;;;0.50;99.90;;;;;;4964512;28;20129;-77
2022/03/05 07:44:15;;;;;;;18.93;14.77;;;0.50;99.90;;;;;;5009158;28;20140;-77
2022/03/05 07:46:41;;;;;;;19.07;14.10;;;0.60;99.90;;;;;;4969239;28;20469;-77
2022/03/05 07:49:06;;;;;;;18.13;14.60;;;0.70;99.90;;;;;;4961560;28;20057;-78
2022/03/05 07:51:33;;;;;;;19.07;14.03;;;0.70;99.90;;;;;;4993606;28;20081;-78
2022/03/05 07:53:59;;;;;;;19.17;14.20;;;0.80;99.90;;;;;;5000327;28;20049;-78
2022/03/05 07:56:25;;;;;;;17.90;14.47;;;0.80;99.90;;;;;;4975784;28;20125;-78
2022/03/05 07:58:51;;;;;;;19.60;15.13;;;0.90;99.90;;;;;;5008081;28;20116;-78
2022/03/05 08:01:17;;;;;;;19.30;13.80;;;1.00;99.90;;;;;;4988554;28;20444;-79
2022/03/05 08:03:42;;;;;;;17.30;14.07;;;1.00;99.90;;;;;;4977348;28;20046;-79
2022/03/05 08:06:08;;;;;;;18.13;14.50;;;1.10;99.90;;;;;;4966998;28;20504;-79
2022/03/05 08:08:34;;;;;;;18.37;14.40;;;1.20;99.90;;;;;;5006726;28;20129;-79
2022/03/05 08:11:00;;;;;;;22.17;16.03;;;1.30;99.90;;;;;;4997061;28;20054;-79
2022/03/05 08:13:29;;;;;;;19.20;14.27;;;1.40;99.90;;;;;;4972801;28;20050;-78
2022/03/05 08:15:55;;;;;;;19.77;15.50;;;1.50;99.90;;;;;;4975461;28;20119;-79
2022/03/05 08:18:21;;;;;;;19.80;14.63;;;1.50;99.90;;;;;;4991691;28;20567;-79
2022/03/05 08:20:47;;;;;;;17.37;14.50;;;1.70;99.90;;;;;;5007420;28;20056;-78
2022/03/05 08:23:13;;;;;;;19.07;14.70;;;1.70;99.90;;;;;;5007747;28;20045;-79
2022/03/05 08:25:39;;;;;;;19.30;15.27;;;1.80;99.90;;;;;;5008133;28;20049;-79
2022/03/05 08:28:05;;;;;;;17.73;15.30;;;2.00;99.90;;;;;;4994531;28;20046;-78
2022/03/05 08:30:31;;;;;;;21.33;15.63;;;2.10;99.90;;;;;;5000792;28;20046;-78
2022/03/05 08:32:57;;;;;;;19.87;15.50;;;2.20;99.90;;;;;;5002855;28;20072;-79
2022/03/05 08:35:23;;;;;;;21.87;15.40;;;2.50;99.90;;;;;;4972411;28;20057;-79
2022/03/05 08:37:49;;;;;;;20.60;16.10;;;2.50;99.90;;;;;;4990800;28;20050;-78
2022/03/05 08:40:16;;;;;;;22.03;15.77;;;2.60;99.90;;;;;;4994727;28;20078;-79
2022/03/05 08:42:42;;;;;;;19.40;14.80;;;2.60;99.90;;;;;;4956132;28;20050;-79
2022/03/05 08:45:09;;;;;;;20.10;15.67;;;2.60;99.90;;;;;;5004894;28;20097;-78
2022/03/05 08:47:35;;;;;;;21.47;15.60;;;2.70;99.90;;;;;;4984653;28;20431;-79
2022/03/05 08:50:03;;;;;;;22.53;16.90;;;2.80;99.90;;;;;;4990917;28;20092;-80
2022/03/05 08:52:35;;;;;;;20.77;15.77;;;2.80;99.90;;;;;;4990807;28;20049;-78
2022/03/05 08:55:11;;;;;;;24.77;17.80;;;3.00;99.90;;;;;;4975715;28;20034;-82
2022/03/05 08:57:38;;;;;;;20.73;16.20;;;3.00;99.90;;;;;;4983633;28;20046;-78
2022/03/05 09:00:06;;;;;;;22.73;17.97;;;3.00;99.90;;;;;;4993144;28;20073;-80
2022/03/05 09:02:32;;;;;;;23.43;17.70;;;3.00;99.90;;;;;;4998379;28;20042;-79
2022/03/05 09:04:58;;;;;;;22.17;16.00;;;3.10;99.90;;;;;;4956448;28;20477;-79
2022/03/05 09:07:24;;;;;;;24.47;17.97;;;3.10;99.90;;;;;;4987076;28;20134;-79
2022/03/05 09:09:49;;;;;;;24.37;17.60;;;3.20;99.90;;;;;;4988086;28;20050;-80
2022/03/05 09:12:15;;;;;;;23.73;18.53;;;3.30;99.90;;;;;;4958622;28;20298;-78
2022/03/05 09:14:41;;;;;;;24.23;17.73;;;3.40;99.90;;;;;;4976591;28;20231;-79
2022/03/05 09:17:07;;;;;;;23.87;17.97;;;3.50;99.90;;;;;;4987066;28;20052;-79
2022/03/05 09:19:33;;;;;;;23.10;17.63;;;3.50;99.90;;;;;;4998071;28;20060;-79
2022/03/05 09:21:59;;;;;;;24.20;17.97;;;3.60;99.90;;;;;;4988488;28;20125;-79
2022/03/05 09:24:25;;;;;;;25.53;18.33;;;3.50;99.90;;;;;;4976083;28;20096;-79
2022/03/05 09:26:51;;;;;;;27.30;19.47;;;3.60;99.90;;;;;;4956299;28;20282;-80
2022/03/05 09:29:17;;;;;;;26.33;19.63;;;3.50;99.90;;;;;;4991369;28;20057;-79
2022/03/05 09:31:43;;;;;;;26.90;19.63;;;3.50;99.90;;;;;;5006245;28;20049;-79
2022/03/05 09:34:08;;;;;;;26.73;19.13;;;3.50;99.90;;;;;;4970601;28;20050;-81
2022/03/05 09:36:34;;;;;;;25.00;18.87;;;3.50;99.90;;;;;;4947007;28;20100;-79
2022/03/05 09:39:00;;;;;;;24.80;18.27;;;3.50;99.90;;;;;;4984509;28;20081;-80
2022/03/05 09:41:29;;;;;;;26.20;19.37;;;3.50;99.90;;;;;;4987554;28;20504;-80
2022/03/05 09:43:54;;;;;;;25.60;19.03;;;3.50;99.90;;;;;;4971325;28;20058;-80
2022/03/05 09:46:22;;;;;;;27.50;19.43;;;3.50;99.90;;;;;;4989439;28;20043;-80
2022/03/05 09:48:53;;;;;;;25.90;19.10;;;3.60;99.90;;;;;;4971024;28;20080;-76
2022/03/05 09:51:22;;;;;;;29.60;20.03;;;3.70;99.90;;;;;;5004225;28;20061;-76
2022/03/05 09:53:52;;;;;;;29.27;20.17;;;3.70;99.90;;;;;;4990011;28;20073;-78
2022/03/05 09:56:17;;;;;;;24.80;19.25;;;3.70;99.90;;;;;;4990431;28;20459;-77
2022/03/05 09:58:43;;;;;;;26.97;19.20;;;3.80;99.90;;;;;;5001475;28;20080;-77
2022/03/05 10:01:09;;;;;;;27.40;19.30;;;3.70;99.90;;;;;;4991462;28;20485;-77
2022/03/05 10:03:45;;;;;;;25.60;18.87;;;3.90;99.90;;;;;;4975777;28;20074;-77
2022/03/05 10:06:19;;;;;;;27.23;18.80;;;4.00;99.90;;;;;;4998453;28;20045;-76
2022/03/05 10:08:46;;;;;;;27.00;19.13;;;4.00;99.90;;;;;;4967992;28;20042;-75
2022/03/05 10:11:14;;;;;;;26.43;20.20;;;4.00;99.90;;;;;;4986182;28;20332;-77
2022/03/05 10:13:42;;;;;;;25.63;18.87;;;4.00;99.90;;;;;;4981143;28;20138;-77
2022/03/05 10:16:30;;;;;;;25.30;18.93;;;4.10;99.90;;;;;;4978311;28;20049;-75
2022/03/05 10:19:31;;;;;;;27.77;20.03;;;4.10;99.90;;;;;;5022101;28;20062;-79
2022/03/05 10:22:04;;;;;;;27.67;20.30;;;4.10;99.90;;;;;;4984771;28;20113;-78
2022/03/05 10:24:48;;;;;;;28.73;20.27;;;4.20;99.90;;;;;;4999388;28;20062;-79
2022/03/05 10:27:13;;;;;;;27.80;20.00;;;4.20;99.90;;;;;;4981634;28;20523;-80
2022/03/05 10:29:40;;;;;;;25.07;18.80;;;4.20;99.90;;;;;;4984143;28;20050;-81
2022/03/05 10:32:08;;;;;;;27.33;19.93;;;4.30;99.90;;;;;;4985819;28;20505;-81
2022/03/05 10:34:50;;;;;;;27.07;20.00;;;4.40;99.90;;;;;;5001631;28;20074;-81
2022/03/05 10:37:17;;;;;;;25.93;19.70;;;4.50;99.90;;;;;;5002651;28;20555;-81
2022/03/05 10:39:43;;;;;;;27.13;19.60;;;4.60;99.90;;;;;;4970789;28;20505;-75
2022/03/05 10:42:25;;;;;;;28.23;20.63;;;4.50;99.90;;;;;;4974374;28;20046;-75
2022/03/05 10:45:06;;;;;;;27.07;18.70;;;4.50;99.90;;;;;;4970604;28;20057;-75
2022/03/05 10:47:40;;;;;;;27.77;19.77;;;4.50;99.90;;;;;;4987817;28;20184;-78
2022/03/05 10:50:22;;;;;;;29.83;19.90;;;4.60;99.90;;;;;;4975858;28;20044;-78
2022/03/05 10:53:04;;;;;;;28.57;19.80;;;4.70;99.90;;;;;;4990846;28;20085;-76
2022/03/05 10:55:37;;;;;;;29.03;19.63;;;4.80;99.90;;;;;;4987885;28;20057;-75
2022/03/05 10:58:17;;;;;;;29.27;19.83;;;4.70;99.90;;;;;;4987364;28;20053;-74
2022/03/05 11:00:46;;;;;;;24.75;18.70;;;4.80;99.90;;;;;;4985855;28;20050;-75
2022/03/05 11:03:12;;;;;;;27.33;19.10;;;4.80;99.90;;;;;;4971151;28;20074;-78
2022/03/05 11:05:38;;;;;;;30.27;20.50;;;4.90;99.90;;;;;;4985735;28;20054;-76
2022/03/05 11:08:05;;;;;;;29.70;20.07;;;5.00;99.90;;;;;;4986304;28;20046;-76
2022/03/05 11:10:32;;;;;;;27.70;20.00;;;5.00;99.90;;;;;;4990372;28;20069;-78
2022/03/05 11:13:02;;;;;;;26.40;19.63;;;5.10;99.90;;;;;;4986566;28;20042;-79
2022/03/05 11:15:29;;;;;;;29.70;20.13;;;5.20;99.90;;;;;;4985814;28;20049;-79
2022/03/05 11:17:58;;;;;;;25.83;18.48;;;5.10;99.90;;;;;;5007021;28;20511;-78
2022/03/05 11:20:25;;;;;;;29.83;21.05;;;5.10;99.90;;;;;;4975942;28;20057;-78
2022/03/05 11:22:52;;;;;;;29.23;20.67;;;5.20;99.90;;;;;;4969955;28;20046;-77
2022/03/05 11:25:28;;;;;;;28.40;19.70;;;5.20;99.90;;;;;;4977192;28;20133;-76
2022/03/05 11:28:01;;;;;;;29.38;20.88;;;5.30;99.90;;;;;;4986321;28;20108;-78
2022/03/05 11:30:28;;;;;;;26.85;19.70;;;5.30;99.90;;;;;;4993032;28;20615;-78
2022/03/05 11:32:54;;;;;;;27.05;20.45;;;5.30;99.90;;;;;;4972492;28;20046;-75
2022/03/05 11:35:28;;;;;;;27.70;19.63;;;5.40;99.90;;;;;;4962494;28;20072;-79
2022/03/05 11:37:54;;;;;;;28.67;19.52;;;5.50;99.90;;;;;;4971100;28;20136;-77
2022/03/05 11:40:50;;;;;;;29.48;20.60;;;5.50;99.90;;;;;;5010199;28;20082;-76
2022/03/05 11:43:16;;;;;;;28.00;19.58;;;5.50;99.90;;;;;;4950386;28;20050;-76
2022/03/05 11:46:06;;;;;;;28.33;20.73;;;5.60;99.90;;;;;;4972437;28;20058;-77
2022/03/05 11:48:34;;;;;;;27.42;19.73;;;5.70;99.90;;;;;;4977639;28;20057;-78
2022/03/05 11:51:07;;;;;;;27.48;19.23;;;5.60;99.90;;;;;;5000461;28;20579;-77
2022/03/05 11:53:33;;;;;;;27.10;19.53;;;5.70;99.90;;;;;;4985009;28;20095;-76
2022/03/05 11:56:22;;;;;;;29.10;20.23;;;5.70;99.90;;;;;;4973286;28;20049;-78
2022/03/05 11:58:48;;;;;;;28.48;20.60;;;5.90;99.90;;;;;;4989477;28;20121;-79
2022/03/05 12:01:32;;;;;;;26.85;19.23;;;6.00;99.90;;;;;;4963772;28;20485;-78
2022/03/05 12:04:03;;;;;;;28.45;19.20;;;6.10;99.90;;;;;;4991367;28;20510;-79
2022/03/05 12:06:42;;;;;;;26.10;18.67;;;6.20;99.90;;;;;;4989540;28;20058;-77
2022/03/05 12:09:35;;;;;;;26.58;19.98;;;6.20;99.90;;;;;;4988672;28;20081;-78
2022/03/05 12:12:04;;;;;;;30.00;20.55;;;6.30;99.90;;;;;;4977978;28;20105;-79
2022/03/05 12:14:57;;;;;;;27.77;20.13;;;6.40;99.90;;;;;;4991415;28;20075;-78
2022/03/05 12:17:23;;;;;;;28.67;19.67;;;6.50;99.90;;;;;;4994665;28;21031;-79
2022/03/05 12:19:49;;;;;;;28.80;18.85;;;6.40;99.90;;;;;;4975746;28;20306;-79
2022/03/05 12:22:16;;;;;;;27.17;17.98;;;6.50;99.90;;;;;;4967714;28;20080;-79
2022/03/05 12:24:42;;;;;;;25.63;18.63;;;6.60;99.90;;;;;;4981262;28;20537;-78
2022/03/05 12:27:15;;;;;;;27.33;18.80;;;6.60;99.90;;;;;;4986366;28;20401;-80
2022/03/05 12:29:52;;;;;;;25.67;18.40;;;6.70;99.90;;;;;;4988723;28;20042;-78
2022/03/05 12:32:31;;;;;;;28.48;18.75;;;6.80;99.90;;;;;;4991053;28;20034;-79
2022/03/05 12:35:05;;;;;;;25.77;18.73;;;6.80;99.90;;;;;;4993906;28;20402;-78
2022/03/05 12:37:32;;;;;;;27.67;18.77;;;6.90;99.90;;;;;;4981700;28;20073;-79